GCRR/ACE METAR and TAF weather

Enter ICAO airport designator
Station Type Date Time Source
GCRR METAR 2018/12/10 18:00 UTC NOAA

GCRR 101800Z 07001KT CAVOK 21/16 Q1023


Station Type Date Time Source
GCRR Decoded METAR 2018/12/10 18:00 UTC NOAA

Lanzarote / Aeropuerto, Spain (GCRR) 28-57N 013-36W 21M
Dec 10, 2018 - 01:00 PM EST / 2018.12.10 1800 UTC
Wind: from the ENE (070 degrees) at 1 MPH (1 KT):0
Visibility: greater than 7 mile(s):0
Temperature: 69 F (21 C)
Dew Point: 60 F (16 C)
Relative Humidity: 73%
Pressure (altimeter): 30.21 in. Hg (1023 hPa)
ob: GCRR 101800Z 07001KT CAVOK 21/16 Q1023
cycle: 18

Station Type Date Time Source
GCRR TAF 2018/12/10 15:27 UTC NOAA

TAF GCRR 101400Z 1015/1115 11005KT CAVOK TX23/1114Z TN15/1106Z
BECMG 1019/1021 36010KT


Example: see airport list